Notice: Undefined index: language in D:\xampp\htdocs\vam\index.php on line 25
Open Air Virtual

 METAR AND TAF INFORMATION
METAR FOR WALL
ADDS - METARS form results

(2042 UTC 21 May 2019)
Data provider http://aviationweather.gov/metar/data/
 
Forecast for: WALL (SEPINGGAN , ID)
Text: TAF WALL 211700Z 2118/2224 23005KT 9000 SCT020
Forecast period: 1800 UTC 21 May 2019 to 0000 UTC 23 May 2019
Forecast type: FROM: standard forecast or significant change
Winds: from the SW (230 degrees) at 6 MPH (5 knots; 2.6 m/s)
Visibility: 6 miles (9 km)
Ceiling: at least 12,000 feet AGL
Clouds: scattered clouds at 2000 feet AGL
Weather: no significant weather forecast for this period

 AIRPORT MAP

 RUNWAY INFORMATION
Runway 07 Runway length 8185 ft Runway width 148 ft
Runway elevation 12 ft Runway displaced threshold 0 ft Runway heading 67
Runway 25 Runway length 8185 ft Runway width 148 ft
Runway elevation 12 ft Runway displaced threshold 0 ft Runway heading 247

 AIRPORT FREQUENCIES
Type APP Name BALIKPAPAN Frequency 120.4 MHZ
Type ATIS Name ATIS Frequency 127.6 MHZ
Type INFO Name BALIKPAPAN Frequency 341.6 MHZ
Type TWR Name TWR Frequency 118.1 MHZ

 AIRPORT NEAR NAVIGATION AIDS
Type VOR-DME Name Balikpapan Frequency 117200 KHZ
Type NDB Name Balikpapan Frequency 365 KHZ



Powered by Virtual Airlines Manager [v2.6.2]